Time;durP1;ratioP1;P1;durP2;ratioP2;P2;SDS_P1;SDS_P2;PMS_P1;PMS_P2;Temp;Humidity;BMP_temperature;BMP_pressure;BME280_temperature;BME280_humidity;BME280_pressure;Samples;Min_cycle;Max_cycle;Signal;HPM_P1;HPM_P2
2023/02/26 00:02:16;;;;;;;7.20;1.50;;;1.60;76.70;;;;;;5036189;28;20028;-82
2023/02/26 00:04:42;;;;;;;5.70;1.10;;;1.60;76.80;;;;;;5054013;28;20025;-82
2023/02/26 00:07:08;;;;;;;5.57;1.33;;;1.60;77.30;;;;;;5036526;28;20469;-82
2023/02/26 00:09:33;;;;;;;7.27;1.40;;;1.60;76.80;;;;;;5054047;28;20513;-82
2023/02/26 00:12:00;;;;;;;7.10;1.17;;;1.60;76.90;;;;;;5052648;28;20064;-82
2023/02/26 00:14:27;;;;;;;6.83;1.20;;;1.60;76.90;;;;;;5053751;28;20053;-81
2023/02/26 00:17:28;;;;;;;8.27;1.67;;;1.50;77.00;;;;;;5053268;28;20440;-81
2023/02/26 00:19:56;;;;;;;5.73;1.70;;;1.50;77.00;;;;;;5021507;28;20474;-82
2023/02/26 00:22:22;;;;;;;10.40;1.53;;;1.50;77.60;;;;;;5036596;28;20029;-81
2023/02/26 00:24:48;;;;;;;5.80;1.40;;;1.40;77.70;;;;;;5052472;28;20419;-82
2023/02/26 00:27:14;;;;;;;7.43;1.30;;;1.40;77.60;;;;;;5052739;28;20036;-81
2023/02/26 00:29:40;;;;;;;7.90;1.30;;;1.40;77.60;;;;;;5052698;28;20029;-81
2023/02/26 00:32:06;;;;;;;6.97;1.07;;;1.40;77.70;;;;;;5053557;28;20393;-81
2023/02/26 00:34:32;;;;;;;7.00;1.50;;;1.40;77.70;;;;;;5053513;28;20038;-83
2023/02/26 00:37:16;;;;;;;5.53;1.13;;;1.30;77.80;;;;;;5052435;28;20029;-81
2023/02/26 00:39:44;;;;;;;5.93;1.75;;;1.30;77.60;;;;;;5053516;28;20024;-81
2023/02/26 00:42:11;;;;;;;6.73;1.10;;;1.20;78.20;;;;;;5052365;28;20036;-81
2023/02/26 00:44:37;;;;;;;4.93;1.20;;;1.20;78.20;;;;;;5035229;28;20056;-82
2023/02/26 00:47:26;;;;;;;7.03;1.13;;;1.20;78.20;;;;;;5035201;28;20355;-82
2023/02/26 00:50:11;;;;;;;5.30;1.17;;;1.20;78.30;;;;;;5052049;28;20083;-81
2023/02/26 00:52:47;;;;;;;;;;;1.10;78.40;;;;;;5053405;28;20037;-82
2023/02/26 00:55:13;;;;;;;5.47;0.93;;;1.10;78.60;;;;;;5051955;28;19999;-82
2023/02/26 00:57:39;;;;;;;4.43;0.97;;;1.10;78.80;;;;;;5051190;28;20116;-82
2023/02/26 01:00:06;;;;;;;5.20;0.90;;;1.10;78.80;;;;;;5068816;28;20064;-82
2023/02/26 01:02:34;;;;;;;3.43;1.57;;;1.00;79.00;;;;;;5053080;28;20104;-82
2023/02/26 01:05:00;;;;;;;5.77;1.00;;;1.00;78.70;;;;;;5053222;28;20100;-82
2023/02/26 01:07:28;;;;;;;6.33;1.10;;;1.00;78.90;;;;;;5052176;28;20025;-82
2023/02/26 01:09:54;;;;;;;4.43;0.90;;;1.00;78.90;;;;;;5051847;28;20021;-82
2023/02/26 01:12:20;;;;;;;4.57;0.87;;;1.00;79.20;;;;;;5068647;28;20091;-82
2023/02/26 01:14:46;;;;;;;8.77;1.00;;;0.90;79.80;;;;;;5034668;28;20037;-82
2023/02/26 01:17:30;;;;;;;5.90;1.10;;;0.90;79.70;;;;;;5035166;28;20065;-82
2023/02/26 01:20:10;;;;;;;2.50;0.73;;;0.90;79.60;;;;;;5052934;28;20103;-82
2023/02/26 01:22:47;;;;;;;6.63;1.20;;;0.90;79.60;;;;;;5052833;28;20112;-82
2023/02/26 01:25:26;;;;;;;4.27;1.00;;;0.90;79.80;;;;;;5052050;28;20057;-82
2023/02/26 01:27:55;;;;;;;3.90;0.90;;;0.90;80.10;;;;;;5051309;28;20032;-82
2023/02/26 01:30:21;;;;;;;5.17;0.90;;;0.90;80.20;;;;;;5052029;28;20031;-82
2023/02/26 01:32:56;;;;;;;6.60;1.23;;;0.90;80.40;;;;;;5051240;28;20036;-82
2023/02/26 01:35:32;;;;;;;7.20;0.70;;;1.00;80.20;;;;;;5051480;28;20050;-82
2023/02/26 01:38:15;;;;;;;5.10;0.70;;;0.90;79.90;;;;;;5051771;28;20025;-82
2023/02/26 01:40:52;;;;;;;5.13;0.83;;;0.90;79.80;;;;;;5052527;28;20035;-82
2023/02/26 01:43:43;;;;;;;5.67;0.70;;;0.90;79.70;;;;;;5052775;28;20036;-82
2023/02/26 01:46:20;;;;;;;2.93;0.80;;;0.90;79.70;;;;;;5052478;28;20078;-82
2023/02/26 01:48:55;;;;;;;6.70;1.20;;;0.80;80.10;;;;;;5051474;28;20029;-82
2023/02/26 01:51:46;;;;;;;1.90;0.60;;;0.80;80.00;;;;;;5052609;28;20036;-82
2023/02/26 01:54:12;;;;;;;5.47;1.20;;;0.80;80.00;;;;;;5051424;28;20116;-82
2023/02/26 01:56:39;;;;;;;1.60;0.60;;;0.80;80.00;;;;;;5034438;28;20029;-82
2023/02/26 01:59:07;;;;;;;5.63;0.70;;;0.70;80.00;;;;;;5051418;28;20401;-82
2023/02/26 02:01:35;;;;;;;2.43;0.70;;;0.70;80.10;;;;;;5035102;28;20025;-82
2023/02/26 02:04:01;;;;;;;5.00;0.80;;;0.60;80.20;;;;;;5052757;28;20029;-82
2023/02/26 02:06:29;;;;;;;7.10;0.90;;;0.60;80.70;;;;;;5051010;28;20525;-82
2023/02/26 02:08:55;;;;;;;7.30;1.00;;;0.70;80.50;;;;;;5054234;28;20384;-81
2023/02/26 02:11:21;;;;;;;4.67;0.63;;;0.60;80.90;;;;;;5055059;28;20418;-81
2023/02/26 02:14:17;;;;;;;7.23;1.00;;;0.50;80.60;;;;;;5055040;28;20477;-81
2023/02/26 02:16:51;;;;;;;3.40;0.90;;;0.50;80.70;;;;;;5056313;28;20029;-82
2023/02/26 02:19:46;;;;;;;4.70;0.80;;;0.50;80.70;;;;;;5055932;28;20090;-82
2023/02/26 02:22:12;;;;;;;4.83;1.13;;;0.40;80.70;;;;;;5055953;28;20416;-81
2023/02/26 02:25:32;;;;;;;6.70;0.80;;;0.30;80.70;;;;;;5056169;28;20074;-81
2023/02/26 02:28:35;;;;;;;4.57;0.90;;;0.40;81.10;;;;;;4954557;28;20121;-81
2023/02/26 02:31:09;;;;;;;6.77;0.93;;;0.40;81.60;;;;;;5055404;28;20029;-80
2023/02/26 02:33:38;;;;;;;;;;;0.30;81.40;;;;;;5056646;28;20036;-81
2023/02/26 02:36:17;;;;;;;4.13;0.70;;;0.30;81.80;;;;;;5054840;28;20357;-82
2023/02/26 02:38:52;;;;;;;3.43;0.70;;;0.20;81.80;;;;;;5054502;28;20033;-81
2023/02/26 02:41:34;;;;;;;4.80;1.07;;;0.30;81.60;;;;;;5054867;28;20032;-81
2023/02/26 02:44:04;;;;;;;4.07;0.90;;;0.20;81.50;;;;;;5055978;28;20070;-82
2023/02/26 02:46:32;;;;;;;5.80;1.03;;;0.20;81.80;;;;;;5055726;28;20076;-82
2023/02/26 02:49:05;;;;;;;7.53;0.83;;;0.20;81.80;;;;;;5054186;28;20105;-81
2023/02/26 02:51:43;;;;;;;2.70;0.70;;;0.20;81.90;;;;;;5054025;28;20132;-82
2023/02/26 02:54:15;;;;;;;14.53;1.37;;;0.20;82.00;;;;;;5054788;28;20104;-82
2023/02/26 02:56:59;;;;;;;3.27;0.70;;;0.10;82.20;;;;;;5054568;28;20029;-82
2023/02/26 02:59:32;;;;;;;5.60;1.23;;;0.10;82.10;;;;;;5054265;28;20025;-81
2023/02/26 03:02:20;;;;;;;4.30;0.75;;;0.10;81.90;;;;;;5055489;28;20017;-82
2023/02/26 03:04:47;;;;;;;5.23;0.60;;;0.10;82.00;;;;;;5054318;28;20033;-81
2023/02/26 03:07:13;;;;;;;4.13;0.73;;;0.00;82.00;;;;;;5037990;28;20029;-82
2023/02/26 03:09:39;;;;;;;2.13;0.63;;;0.00;82.10;;;;;;5038097;28;20032;-82
2023/02/26 03:12:04;;;;;;;4.23;0.60;;;0.00;82.10;;;;;;5053595;28;20045;-82
2023/02/26 03:14:31;;;;;;;4.27;0.60;;;0.00;82.20;;;;;;5037397;28;20072;-82
2023/02/26 03:17:26;;;;;;;5.27;0.70;;;0.00;82.20;;;;;;5037514;28;20029;-82
2023/02/26 03:20:10;;;;;;;2.73;0.73;;;-0.10;82.10;;;;;;5052890;28;20071;-82
2023/02/26 03:22:44;;;;;;;;;;;-0.10;82.30;;;;;;5054543;28;20108;-81
2023/02/26 03:25:16;;;;;;;5.35;0.70;;;-0.10;82.30;;;;;;5053894;28;20359;-80
2023/02/26 03:28:07;;;;;;;3.47;0.60;;;-0.10;82.30;;;;;;5053810;28;20025;-81
2023/02/26 03:30:51;;;;;;;5.63;0.60;;;-0.10;82.20;;;;;;5054887;28;20025;-81
2023/02/26 03:33:58;;;;;;;2.88;0.60;;;-0.20;82.20;;;;;;5053553;28;20063;-81
2023/02/26 03:36:36;;;;;;;5.87;0.80;;;-0.20;82.10;;;;;;5053795;28;20385;-82
2023/02/26 03:39:02;;;;;;;3.27;0.50;;;-0.20;82.50;;;;;;5055061;28;20036;-81
2023/02/26 03:41:50;;;;;;;5.97;0.80;;;-0.20;82.50;;;;;;5053702;28;20547;-81
2023/02/26 03:44:26;;;;;;;7.03;0.80;;;-0.20;82.30;;;;;;5053111;28;20028;-82
2023/02/26 03:46:57;;;;;;;4.70;0.67;;;-0.20;82.60;;;;;;5053228;28;20461;-82
2023/02/26 03:49:31;;;;;;;4.60;0.50;;;-0.20;82.70;;;;;;5053072;28;20128;-81
2023/02/26 03:51:59;;;;;;;3.03;0.63;;;-0.20;82.60;;;;;;5053010;28;20044;-81
2023/02/26 03:54:56;;;;;;;2.80;0.57;;;-0.20;82.50;;;;;;5053394;28;20322;-81
2023/02/26 03:57:22;;;;;;;3.77;0.70;;;-0.20;82.40;;;;;;5049179;28;20075;-81
2023/02/26 03:59:48;;;;;;;1.47;0.50;;;-0.20;82.50;;;;;;5052970;28;20276;-80
2023/02/26 04:02:18;;;;;;;2.60;0.50;;;-0.20;82.40;;;;;;5053356;28;20083;-82
2023/02/26 04:05:22;;;;;;;2.83;0.57;;;-0.30;82.40;;;;;;5052935;28;20043;-81
2023/02/26 04:07:48;;;;;;;5.63;0.90;;;-0.30;82.40;;;;;;5048962;28;20128;-81
2023/02/26 04:10:20;;;;;;;6.23;0.50;;;-0.20;82.50;;;;;;5053963;28;20303;-81
2023/02/26 04:12:46;;;;;;;3.50;0.70;;;-0.30;82.40;;;;;;5052948;28;20052;-82
2023/02/26 04:15:12;;;;;;;2.97;0.53;;;-0.30;82.40;;;;;;5052589;28;20100;-82
2023/02/26 04:17:38;;;;;;;1.87;0.53;;;-0.40;82.60;;;;;;5052875;28;20083;-82
2023/02/26 04:20:11;;;;;;;3.03;0.57;;;-0.40;82.40;;;;;;5035612;28;20028;-82
2023/02/26 04:22:37;;;;;;;2.67;0.67;;;-0.40;82.50;;;;;;5036806;28;20025;-82
2023/02/26 04:25:03;;;;;;;2.53;0.63;;;-0.40;82.50;;;;;;5053837;28;20120;-81
2023/02/26 04:27:28;;;;;;;2.47;0.40;;;-0.50;82.60;;;;;;5052193;28;20112;-81
2023/02/26 04:29:54;;;;;;;3.03;0.50;;;-0.40;82.70;;;;;;5053058;28;20032;-81
2023/02/26 04:32:19;;;;;;;3.10;0.60;;;-0.40;82.80;;;;;;5051395;28;20044;-81
2023/02/26 04:34:45;;;;;;;6.93;0.80;;;-0.50;82.80;;;;;;5035589;28;20036;-81
2023/02/26 04:37:11;;;;;;;3.80;0.67;;;-0.50;82.80;;;;;;5035676;28;20025;-81
2023/02/26 04:39:36;;;;;;;4.27;0.50;;;-0.50;83.00;;;;;;5052545;28;20359;-81
2023/02/26 04:42:03;;;;;;;3.87;0.50;;;-0.50;83.00;;;;;;5052635;28;20029;-81
2023/02/26 04:44:29;;;;;;;2.33;0.57;;;-0.50;83.00;;;;;;5052314;28;20025;-82
2023/02/26 04:46:56;;;;;;;2.67;0.60;;;-0.50;83.00;;;;;;5052441;28;20783;-81
2023/02/26 04:49:21;;;;;;;4.27;0.60;;;-0.50;83.20;;;;;;5035072;28;20029;-80
2023/02/26 04:51:47;;;;;;;5.47;0.60;;;-0.50;83.20;;;;;;5051997;28;20511;-81
2023/02/26 04:54:13;;;;;;;2.67;0.77;;;-0.50;83.20;;;;;;5052007;28;20065;-81
2023/02/26 04:56:39;;;;;;;6.57;0.70;;;-0.50;83.00;;;;;;5053555;28;20033;-81
2023/02/26 04:59:04;;;;;;;4.87;0.80;;;-0.40;83.00;;;;;;5051947;28;20370;-81
2023/02/26 05:01:30;;;;;;;3.17;0.50;;;-0.50;82.90;;;;;;5052064;28;20029;-80
2023/02/26 05:03:56;;;;;;;4.93;1.77;;;-0.40;82.90;;;;;;5052452;28;20552;-81
2023/02/26 05:06:21;;;;;;;6.33;0.70;;;-0.40;82.90;;;;;;5075133;28;20028;-81
2023/02/26 05:08:47;;;;;;;6.90;0.73;;;-0.40;83.00;;;;;;5053949;28;20036;-81
2023/02/26 05:11:13;;;;;;;7.97;0.70;;;-0.40;83.00;;;;;;5071363;28;20060;-83
2023/02/26 05:13:39;;;;;;;4.93;0.60;;;-0.30;83.10;;;;;;5070526;28;20059;-82
2023/02/26 05:16:05;;;;;;;4.33;0.47;;;-0.40;82.90;;;;;;5072063;28;20097;-82
2023/02/26 05:18:31;;;;;;;6.70;0.60;;;-0.40;82.80;;;;;;5055004;28;20392;-82
2023/02/26 05:20:57;;;;;;;5.77;1.00;;;-0.40;82.80;;;;;;5071781;28;20037;-82
2023/02/26 05:23:23;;;;;;;4.67;0.70;;;-0.40;82.70;;;;;;5071472;28;20081;-82
2023/02/26 05:25:49;;;;;;;3.37;0.60;;;-0.30;82.70;;;;;;5073434;28;20025;-82
2023/02/26 05:28:15;;;;;;;3.30;0.63;;;-0.40;82.60;;;;;;5071552;28;20056;-82
2023/02/26 05:30:41;;;;;;;3.07;0.60;;;-0.40;82.60;;;;;;5071782;28;20025;-81
2023/02/26 05:33:06;;;;;;;3.73;0.47;;;-0.40;82.50;;;;;;5071631;28;20294;-81
2023/02/26 05:35:32;;;;;;;6.67;0.80;;;-0.40;82.40;;;;;;5054730;28;20025;-81
2023/02/26 05:37:58;;;;;;;2.30;0.50;;;-0.40;82.40;;;;;;5054955;28;20035;-81
2023/02/26 05:40:24;;;;;;;2.67;0.67;;;-0.40;83.00;;;;;;5055049;28;20377;-81
2023/02/26 05:42:50;;;;;;;3.50;0.50;;;-0.40;82.30;;;;;;5072814;28;20024;-81
2023/02/26 05:45:16;;;;;;;4.03;0.40;;;-0.40;82.20;;;;;;5075714;28;20039;-80
2023/02/26 05:47:42;;;;;;;6.37;0.50;;;-0.40;82.20;;;;;;5076863;28;20048;-82
2023/02/26 05:50:08;;;;;;;6.73;0.90;;;-0.40;82.10;;;;;;5076324;28;20024;-81
2023/02/26 05:52:34;;;;;;;5.10;0.63;;;-0.40;82.10;;;;;;5059060;28;20158;-82
2023/02/26 05:55:00;;;;;;;5.70;0.50;;;-0.40;82.70;;;;;;5075690;28;20501;-82
2023/02/26 05:57:25;;;;;;;2.83;0.60;;;-0.40;82.10;;;;;;5075520;28;20052;-82
2023/02/26 05:59:51;;;;;;;2.30;0.70;;;-0.50;81.90;;;;;;5075945;28;20051;-82
2023/02/26 06:02:17;;;;;;;4.27;0.70;;;-0.40;82.00;;;;;;5058817;28;20465;-81
2023/02/26 06:04:42;;;;;;;6.23;0.90;;;-0.40;81.90;;;;;;5058667;28;20070;-82
2023/02/26 06:07:08;;;;;;;5.67;0.60;;;-0.50;81.80;;;;;;5075190;28;20078;-81
2023/02/26 06:09:33;;;;;;;3.50;0.70;;;-0.40;81.90;;;;;;5058545;28;20048;-81
2023/02/26 06:11:59;;;;;;;3.10;0.60;;;-0.40;81.90;;;;;;5058601;28;20472;-82
2023/02/26 06:14:25;;;;;;;4.80;0.90;;;-0.40;81.80;;;;;;5058673;28;20052;-82
2023/02/26 06:16:51;;;;;;;1.07;0.40;;;-0.40;81.90;;;;;;5058440;28;20415;-82
2023/02/26 06:19:16;;;;;;;3.77;0.90;;;-0.40;81.90;;;;;;5076197;28;20021;-82
2023/02/26 06:21:42;;;;;;;1.97;0.50;;;-0.40;81.80;;;;;;5057882;28;20638;-81
2023/02/26 06:24:07;;;;;;;5.03;0.70;;;-0.40;81.80;;;;;;5058580;28;20029;-82
2023/02/26 06:26:33;;;;;;;6.20;0.40;;;-0.40;81.80;;;;;;5058455;28;20033;-82
2023/02/26 06:28:59;;;;;;;4.37;0.70;;;-0.40;81.90;;;;;;5074978;28;20035;-81
2023/02/26 06:31:26;;;;;;;5.93;0.60;;;-0.40;81.90;;;;;;5058468;28;20496;-82
2023/02/26 06:33:51;;;;;;;6.00;1.07;;;-0.50;81.90;;;;;;5074462;28;20027;-82
2023/02/26 06:36:17;;;;;;;2.60;0.60;;;-0.40;82.00;;;;;;5074380;28;20279;-81
2023/02/26 06:38:44;;;;;;;4.03;0.70;;;-0.40;82.00;;;;;;5058356;28;20146;-81
2023/02/26 06:41:10;;;;;;;2.37;0.47;;;-0.40;82.00;;;;;;5076003;28;20033;-81
2023/02/26 06:43:35;;;;;;;5.30;0.60;;;-0.40;82.00;;;;;;5057637;28;20289;-82
2023/02/26 06:46:01;;;;;;;4.43;0.60;;;-0.40;82.00;;;;;;5074255;28;20060;-81
2023/02/26 06:48:27;;;;;;;3.33;0.50;;;-0.40;82.00;;;;;;5070076;28;20411;-81
2023/02/26 06:50:53;;;;;;;2.93;0.60;;;-0.40;82.00;;;;;;5075148;28;20024;-81
2023/02/26 06:53:18;;;;;;;4.53;0.50;;;-0.30;82.10;;;;;;5074481;28;20064;-82
2023/02/26 06:55:45;;;;;;;4.67;0.73;;;-0.20;82.10;;;;;;5056790;28;20020;-81
2023/02/26 06:58:11;;;;;;;4.13;0.60;;;-0.30;82.10;;;;;;5075022;28;20031;-83
2023/02/26 07:00:37;;;;;;;3.60;0.50;;;-0.30;82.10;;;;;;5075639;28;20715;-83
2023/02/26 07:03:04;;;;;;;4.87;0.67;;;-0.30;82.00;;;;;;5057895;28;20884;-82
2023/02/26 07:05:29;;;;;;;3.07;0.60;;;-0.30;82.60;;;;;;5074209;28;20507;-82
2023/02/26 07:07:55;;;;;;;5.17;0.60;;;-0.20;82.10;;;;;;5074617;28;20111;-82
2023/02/26 07:10:21;;;;;;;10.27;0.83;;;-0.20;82.10;;;;;;5057316;28;20507;-82
2023/02/26 07:12:47;;;;;;;5.57;0.97;;;-0.20;82.20;;;;;;5073818;28;20055;-82
2023/02/26 07:15:13;;;;;;;3.13;0.73;;;-0.10;82.30;;;;;;5075250;28;20040;-82
2023/02/26 07:17:39;;;;;;;4.63;0.60;;;-0.10;82.30;;;;;;5057277;28;20287;-81
2023/02/26 07:20:08;;;;;;;6.70;0.90;;;-0.10;82.20;;;;;;5073487;28;20016;-82
2023/02/26 07:22:36;;;;;;;4.70;0.77;;;-0.10;82.10;;;;;;5041367;28;20035;-83
2023/02/26 07:25:03;;;;;;;3.57;0.60;;;0.00;82.00;;;;;;5075333;28;20025;-82
2023/02/26 07:27:28;;;;;;;8.60;0.70;;;0.00;82.10;;;;;;5057230;28;20029;-82
2023/02/26 07:29:54;;;;;;;5.47;0.77;;;0.00;82.00;;;;;;5073728;28;20066;-82
2023/02/26 07:32:20;;;;;;;5.53;0.70;;;0.00;82.10;;;;;;5073523;28;20036;-83
2023/02/26 07:34:46;;;;;;;5.07;0.80;;;0.10;82.30;;;;;;5056887;28;20059;-83
2023/02/26 07:37:12;;;;;;;3.53;0.50;;;0.10;82.20;;;;;;5073791;28;20040;-83
2023/02/26 07:39:38;;;;;;;5.87;0.53;;;0.20;82.50;;;;;;5074043;28;20024;-83
2023/02/26 07:42:04;;;;;;;7.33;0.60;;;0.20;82.40;;;;;;5073761;28;20036;-83
2023/02/26 07:44:29;;;;;;;5.97;0.50;;;0.30;82.40;;;;;;5056826;28;20036;-83
2023/02/26 07:46:55;;;;;;;2.10;0.60;;;0.30;82.50;;;;;;5073842;28;20105;-83
2023/02/26 07:49:21;;;;;;;4.40;0.47;;;0.30;82.40;;;;;;5073094;28;20032;-83
2023/02/26 07:51:47;;;;;;;3.83;0.60;;;0.40;82.40;;;;;;5057157;28;20436;-83
2023/02/26 07:54:13;;;;;;;5.27;0.57;;;0.40;82.30;;;;;;5073512;28;20036;-82
2023/02/26 07:56:41;;;;;;;9.37;0.77;;;0.50;82.40;;;;;;5056899;28;20480;-83
2023/02/26 07:59:07;;;;;;;4.33;0.60;;;0.50;82.40;;;;;;5073504;28;20033;-83
2023/02/26 08:01:34;;;;;;;2.57;0.50;;;0.60;82.20;;;;;;5056603;28;20488;-82
2023/02/26 08:03:59;;;;;;;3.00;0.50;;;0.60;82.10;;;;;;5073429;28;20021;-82
2023/02/26 08:06:25;;;;;;;4.10;0.83;;;0.70;82.10;;;;;;5056705;28;20450;-82
2023/02/26 08:08:51;;;;;;;4.93;0.70;;;0.70;82.00;;;;;;5056470;28;20024;-83
2023/02/26 08:11:17;;;;;;;4.80;0.70;;;0.70;82.00;;;;;;5073563;28;20028;-83
2023/02/26 08:13:42;;;;;;;2.20;0.40;;;0.80;81.70;;;;;;5056524;28;20036;-82
2023/02/26 08:16:08;;;;;;;4.37;0.70;;;0.80;81.60;;;;;;5074382;28;20033;-82
2023/02/26 08:18:34;;;;;;;5.00;0.53;;;0.90;81.70;;;;;;5072856;28;20029;-81
2023/02/26 08:20:59;;;;;;;5.17;0.60;;;1.00;81.70;;;;;;5055682;28;20028;-82
2023/02/26 08:23:25;;;;;;;3.93;0.70;;;1.00;81.60;;;;;;5073141;28;20033;-83
2023/02/26 08:26:00;;;;;;;2.80;0.80;;;1.00;81.60;;;;;;5074083;28;20021;-84
2023/02/26 08:28:26;;;;;;;7.53;0.70;;;1.00;81.40;;;;;;5073771;28;20033;-83
2023/02/26 08:30:52;;;;;;;3.57;0.70;;;1.20;81.30;;;;;;5072581;28;20705;-84
2023/02/26 08:33:18;;;;;;;3.87;0.40;;;1.20;81.10;;;;;;5073847;28;20045;-84
2023/02/26 08:35:44;;;;;;;3.90;0.50;;;1.30;80.80;;;;;;5055898;28;20126;-83
2023/02/26 08:38:09;;;;;;;2.27;0.60;;;1.30;80.80;;;;;;5055802;28;20032;-84
2023/02/26 08:40:35;;;;;;;3.93;0.50;;;1.40;80.80;;;;;;5056197;28;20032;-83
2023/02/26 08:43:02;;;;;;;5.67;0.60;;;1.40;80.80;;;;;;5074032;28;20489;-82
2023/02/26 08:45:28;;;;;;;3.10;0.50;;;1.50;80.60;;;;;;5055532;28;20032;-82
2023/02/26 08:47:54;;;;;;;3.90;0.50;;;1.60;80.60;;;;;;5056227;28;20131;-82
2023/02/26 08:50:20;;;;;;;3.60;0.73;;;1.60;80.50;;;;;;5055323;28;20027;-84
2023/02/26 08:52:46;;;;;;;4.07;0.77;;;1.70;80.30;;;;;;5072287;28;20086;-82
2023/02/26 08:55:11;;;;;;;9.87;0.50;;;1.70;79.80;;;;;;5072185;28;20388;-82
2023/02/26 08:57:37;;;;;;;2.63;0.50;;;1.90;80.10;;;;;;5072087;28;20024;-82
2023/02/26 09:00:04;;;;;;;6.27;0.80;;;1.90;79.80;;;;;;5055322;28;20032;-83
2023/02/26 09:02:30;;;;;;;3.67;0.73;;;1.90;79.90;;;;;;5072000;28;20111;-81
2023/02/26 09:04:56;;;;;;;3.17;0.70;;;2.10;80.30;;;;;;5074114;28;20053;-83
2023/02/26 09:07:21;;;;;;;6.83;1.30;;;2.00;79.30;;;;;;5055499;28;20035;-84
2023/02/26 09:09:47;;;;;;;2.37;0.40;;;2.10;78.60;;;;;;5039479;28;20396;-84
2023/02/26 09:12:13;;;;;;;3.97;0.57;;;2.20;78.70;;;;;;5073325;28;20040;-83
2023/02/26 09:14:38;;;;;;;7.60;0.70;;;2.30;79.00;;;;;;5072356;28;20029;-84
2023/02/26 09:17:04;;;;;;;3.20;1.00;;;2.40;77.80;;;;;;5072680;28;20479;-84
2023/02/26 09:19:30;;;;;;;5.53;1.67;;;2.60;78.10;;;;;;5072369;28;20047;-83
2023/02/26 09:21:55;;;;;;;4.17;0.60;;;2.50;76.90;;;;;;5038850;28;20456;-84
2023/02/26 09:24:21;;;;;;;4.07;0.70;;;2.60;76.90;;;;;;5055379;28;20025;-84
2023/02/26 09:26:46;;;;;;;4.77;1.17;;;2.60;75.70;;;;;;5055115;28;20056;-82
2023/02/26 09:29:13;;;;;;;7.23;0.90;;;2.70;75.40;;;;;;5038907;28;20385;-82
2023/02/26 09:31:39;;;;;;;3.13;0.80;;;2.80;75.60;;;;;;5073185;28;20104;-82
2023/02/26 09:34:04;;;;;;;5.53;0.70;;;2.90;75.70;;;;;;5055021;28;20124;-83
2023/02/26 09:36:30;;;;;;;4.33;1.03;;;3.00;73.20;;;;;;5055090;28;20491;-83
2023/02/26 09:38:56;;;;;;;4.67;1.03;;;3.00;73.50;;;;;;5072946;28;20419;-82
2023/02/26 09:41:34;;;;;;;4.93;0.53;;;3.10;73.20;;;;;;5055081;28;20085;-83
2023/02/26 09:44:18;;;;;;;5.10;0.63;;;3.10;72.70;;;;;;5071651;28;20071;-83
2023/02/26 09:46:50;;;;;;;3.08;0.70;;;3.20;71.70;;;;;;5072808;28;20059;-83
2023/02/26 09:49:25;;;;;;;3.13;0.73;;;3.30;72.20;;;;;;5072495;28;20029;-83
2023/02/26 09:52:02;;;;;;;2.53;0.60;;;3.30;72.30;;;;;;5071564;28;20028;-83
2023/02/26 09:54:35;;;;;;;5.03;0.50;;;3.40;72.30;;;;;;5072275;28;20433;-83
2023/02/26 09:57:03;;;;;;;2.60;0.50;;;3.60;71.90;;;;;;5072531;28;20594;-84
2023/02/26 09:59:33;;;;;;;3.10;0.63;;;3.60;70.60;;;;;;5073249;28;20095;-84
2023/02/26 10:02:14;;;;;;;2.73;0.87;;;3.80;70.40;;;;;;5072903;28;20020;-83
2023/02/26 10:05:32;;;;;;;1.67;0.33;;;4.00;70.80;;;;;;5071979;28;20380;-83
2023/02/26 10:08:06;;;;;;;5.90;0.50;;;4.30;70.70;;;;;;5065496;28;20037;-84
2023/02/26 10:11:06;;;;;;;1.63;0.40;;;4.70;70.70;;;;;;5071235;28;20044;-84
2023/02/26 10:13:54;;;;;;;2.40;0.60;;;5.30;71.70;;;;;;5071471;28;20413;-84
2023/02/26 10:16:22;;;;;;;1.57;0.40;;;5.90;71.30;;;;;;5071653;28;20021;-84
2023/02/26 10:18:57;;;;;;;1.83;0.40;;;6.60;70.70;;;;;;5071180;28;20021;-84
2023/02/26 10:21:37;;;;;;;1.83;0.30;;;7.30;69.90;;;;;;5072325;28;20025;-84
2023/02/26 10:24:09;;;;;;;3.30;0.52;;;8.10;69.60;;;;;;5073046;28;20025;-84
2023/02/26 10:26:59;;;;;;;4.32;0.35;;;8.90;66.10;;;;;;5072592;28;20488;-85
2023/02/26 10:29:52;;;;;;;1.42;0.30;;;9.70;66.00;;;;;;5072020;28;20021;-81
2023/02/26 10:32:27;;;;;;;2.45;0.43;;;10.40;65.50;;;;;;5074864;28;20040;-83
2023/02/26 10:34:57;;;;;;;1.02;0.30;;;11.10;64.80;;;;;;5075268;28;20029;-83
2023/02/26 10:38:01;;;;;;;3.42;0.47;;;11.80;62.60;;;;;;5075100;28;20104;-84
2023/02/26 10:40:31;;;;;;;2.38;0.30;;;12.30;58.00;;;;;;5075599;28;20017;-83
2023/02/26 10:43:15;;;;;;;1.15;0.20;;;12.80;53.80;;;;;;5074964;28;20017;-83
2023/02/26 10:45:56;;;;;;;1.58;0.30;;;13.30;54.60;;;;;;5076162;28;20364;-83
2023/02/26 10:48:43;;;;;;;1.58;0.30;;;13.80;53.80;;;;;;5075824;28;20074;-84
2023/02/26 10:51:15;;;;;;;6.05;0.40;;;14.40;52.10;;;;;;5074446;28;20027;-84
2023/02/26 10:53:45;;;;;;;1.45;0.30;;;14.80;49.20;;;;;;5074443;28;20025;-84
2023/02/26 10:56:26;;;;;;;3.03;0.43;;;15.00;48.10;;;;;;5075790;28;20017;-83
2023/02/26 10:58:53;;;;;;;2.53;0.30;;;15.30;45.90;;;;;;5074248;28;20111;-83
2023/02/26 11:01:22;;;;;;;1.13;0.10;;;15.40;46.00;;;;;;5074194;28;20535;-84
2023/02/26 11:04:17;;;;;;;2.55;0.40;;;15.50;45.40;;;;;;5075539;28;20150;-83
2023/02/26 11:06:48;;;;;;;;;;;15.50;43.40;;;;;;5076230;28;20036;-83
2023/02/26 11:09:26;;;;;;;1.50;0.30;;;15.40;41.10;;;;;;5075503;28;19994;-83
2023/02/26 11:11:53;;;;;;;2.58;0.30;;;15.30;42.60;;;;;;5076501;28;20043;-83
2023/02/26 11:14:20;;;;;;;1.38;0.40;;;15.50;42.70;;;;;;5074212;28;20021;-83
2023/02/26 11:16:54;;;;;;;3.92;0.60;;;15.40;41.90;;;;;;5074171;28;20036;-82
2023/02/26 11:19:30;;;;;;;3.88;0.75;;;15.40;41.60;;;;;;5073475;28;20024;-82
2023/02/26 11:21:58;;;;;;;5.63;1.10;;;15.50;40.90;;;;;;5074165;28;20024;-82
2023/02/26 11:24:35;;;;;;;6.20;1.23;;;15.50;39.90;;;;;;5074027;28;20027;-84
2023/02/26 11:27:03;;;;;;;4.57;1.00;;;15.50;40.60;;;;;;5075256;28;20028;-84
2023/02/26 11:29:42;;;;;;;2.95;0.73;;;15.30;40.50;;;;;;5073855;28;20028;-84
2023/02/26 11:32:28;;;;;;;2.90;0.55;;;15.10;40.30;;;;;;5073554;28;20139;-83
2023/02/26 11:34:54;;;;;;;3.22;0.40;;;15.20;40.50;;;;;;5073973;28;20016;-84
2023/02/26 11:37:23;;;;;;;3.15;0.30;;;15.40;41.50;;;;;;5073695;28;20082;-84
2023/02/26 11:40:04;;;;;;;3.58;0.43;;;15.80;41.60;;;;;;5073274;28;20035;-84
2023/02/26 11:42:43;;;;;;;2.15;0.32;;;16.20;41.20;;;;;;5074846;28;20016;-84
2023/02/26 11:45:15;;;;;;;2.03;0.50;;;16.60;41.80;;;;;;5073728;28;20020;-83
2023/02/26 11:47:41;;;;;;;1.83;0.30;;;17.10;41.40;;;;;;5074533;28;20098;-84
2023/02/26 11:50:16;;;;;;;3.97;0.60;;;17.50;41.80;;;;;;5073192;28;20108;-84
2023/02/26 11:52:45;;;;;;;1.83;0.55;;;18.00;40.70;;;;;;5073079;28;20453;-83
2023/02/26 11:55:46;;;;;;;1.02;0.22;;;18.40;40.00;;;;;;5074676;28;20107;-83
2023/02/26 11:58:21;;;;;;;1.63;0.32;;;18.90;38.50;;;;;;5053740;28;20074;-82
2023/02/26 12:00:48;;;;;;;2.22;0.40;;;19.20;37.10;;;;;;5073343;28;20020;-84
2023/02/26 12:03:25;;;;;;;1.90;0.40;;;19.30;36.90;;;;;;5056339;28;20033;-83
2023/02/26 12:05:53;;;;;;;2.53;0.38;;;19.20;36.20;;;;;;5074064;28;20066;-83
2023/02/26 12:08:31;;;;;;;1.58;0.35;;;19.10;35.90;;;;;;5076113;28;20025;-83
2023/02/26 12:11:18;;;;;;;1.80;0.30;;;19.00;35.40;;;;;;5074776;28;20024;-83
2023/02/26 12:14:21;;;;;;;1.65;0.40;;;18.90;35.30;;;;;;5074161;28;20082;-83
2023/02/26 12:17:01;;;;;;;2.10;0.45;;;18.50;35.20;;;;;;5075196;28;20499;-82
2023/02/26 12:19:50;;;;;;;1.17;0.30;;;18.20;35.70;;;;;;5073841;28;20029;-83
2023/02/26 12:22:34;;;;;;;1.67;0.50;;;18.10;36.20;;;;;;5073395;28;20495;-82
2023/02/26 12:25:20;;;;;;;1.52;0.47;;;18.30;35.80;;;;;;5075075;28;20021;-82
2023/02/26 12:28:11;;;;;;;1.42;0.20;;;18.30;35.20;;;;;;5073698;28;20025;-82
2023/02/26 12:31:15;;;;;;;1.50;0.38;;;18.30;34.60;;;;;;5072267;28;20487;-81
2023/02/26 12:34:05;;;;;;;1.58;0.35;;;18.20;34.70;;;;;;5073988;28;20044;-82
2023/02/26 12:36:39;;;;;;;1.60;0.40;;;18.30;35.00;;;;;;5074191;28;20033;-81
2023/02/26 12:39:24;;;;;;;2.22;0.40;;;18.50;35.30;;;;;;5071881;28;20415;-82
2023/02/26 12:42:04;;;;;;;2.40;0.50;;;18.90;35.60;;;;;;5073591;28;20036;-82
2023/02/26 12:45:00;;;;;;;1.17;0.30;;;19.30;35.00;;;;;;5072277;28;20514;-81
2023/02/26 12:47:41;;;;;;;2.33;0.30;;;19.80;34.70;;;;;;5073251;28;20063;-81
2023/02/26 12:50:31;;;;;;;2.17;0.30;;;20.10;34.50;;;;;;5073225;28;20042;-81
2023/02/26 12:53:37;;;;;;;2.28;0.40;;;20.40;34.10;;;;;;5071331;28;20131;-82
2023/02/26 12:56:24;;;;;;;1.80;0.50;;;20.60;33.80;;;;;;5073526;28;20052;-81
2023/02/26 12:59:40;;;;;;;5.47;0.70;;;20.60;33.20;;;;;;5073742;28;20030;-82
2023/02/26 13:02:24;;;;;;;1.30;0.30;;;20.70;33.30;;;;;;4974164;28;20146;-81
2023/02/26 13:04:59;;;;;;;1.75;0.40;;;20.50;32.60;;;;;;5064912;28;20041;-80
2023/02/26 13:07:35;;;;;;;3.60;0.60;;;20.40;33.20;;;;;;5070752;28;20033;-80
2023/02/26 13:10:04;;;;;;;1.63;0.28;;;20.70;34.10;;;;;;5076583;28;20024;-81
2023/02/26 13:12:34;;;;;;;2.75;0.40;;;20.70;32.80;;;;;;5072763;28;20036;-81
2023/02/26 13:15:17;;;;;;;1.77;0.30;;;20.60;32.00;;;;;;5073046;28;20024;-81
2023/02/26 13:17:43;;;;;;;4.22;0.30;;;20.50;31.90;;;;;;5072183;28;20059;-82
2023/02/26 13:20:18;;;;;;;1.08;0.30;;;20.30;31.80;;;;;;5074088;28;20016;-82